Time;durP1;ratioP1;P1;durP2;ratioP2;P2;SDS_P1;SDS_P2;PMS_P1;PMS_P2;Temp;Humidity;BMP_temperature;BMP_pressure;BME280_temperature;BME280_humidity;BME280_pressure;Samples;Min_cycle;Max_cycle;Signal;HPM_P1;HPM_P2
2022/05/17 00:00:29;;;;;;;3.43;3.10;;;19.20;50.80;;;;;;20609;6875;118533;-67
2022/05/17 00:02:57;;;;;;;5.45;3.40;;;19.20;50.70;;;;;;20396;6875;334118;-67
2022/05/17 00:05:21;;;;;;;4.70;3.77;;;19.20;50.60;;;;;;20420;6876;287207;-67
2022/05/17 00:07:47;;;;;;;4.10;3.80;;;19.50;50.30;;;;;;20412;6876;322002;-67
2022/05/17 00:10:13;;;;;;;3.92;3.62;;;19.70;50.10;;;;;;20398;6876;283271;-68
2022/05/17 00:12:39;;;;;;;4.05;3.75;;;19.50;50.00;;;;;;20633;6876;118543;-68
2022/05/17 00:15:05;;;;;;;3.53;3.23;;;19.50;49.90;;;;;;20634;6876;117230;-67
2022/05/17 00:17:30;;;;;;;3.67;3.30;;;19.10;50.40;;;;;;20631;6876;117610;-67
2022/05/17 00:19:56;;;;;;;4.87;3.80;;;18.80;50.90;;;;;;20409;6876;283367;-67
2022/05/17 00:22:22;;;;;;;3.70;3.40;;;19.20;50.80;;;;;;20392;6876;277596;-67
2022/05/17 00:24:48;;;;;;;5.07;3.70;;;19.20;50.80;;;;;;20417;6876;307468;-67
2022/05/17 00:27:13;;;;;;;3.97;3.57;;;19.40;49.90;;;;;;20584;6876;117441;-67
2022/05/17 00:29:39;;;;;;;4.67;3.70;;;19.20;49.90;;;;;;20406;6876;278645;-67
2022/05/17 00:32:05;;;;;;;3.80;3.50;;;19.40;50.20;;;;;;20423;6876;306470;-67
2022/05/17 00:34:31;;;;;;;3.70;3.40;;;19.40;50.20;;;;;;20606;6876;117317;-67
2022/05/17 00:36:56;;;;;;;4.33;3.90;;;19.20;50.20;;;;;;20425;6876;277817;-67
2022/05/17 00:39:22;;;;;;;4.50;3.60;;;19.30;50.30;;;;;;20620;6876;120230;-67
2022/05/17 00:41:47;;;;;;;5.27;3.80;;;19.10;50.50;;;;;;20417;6876;306412;-67
2022/05/17 00:47:18;;;;;;;3.47;3.20;;;19.00;50.60;;;;;;20635;6876;117274;-68
2022/05/17 00:49:54;;;;;;;5.90;3.80;;;18.70;51.00;;;;;;20395;6876;307215;-68
2022/05/17 00:52:26;;;;;;;3.93;3.63;;;18.90;51.20;;;;;;20365;6876;295749;-67
2022/05/17 00:54:51;;;;;;;5.50;3.80;;;19.10;50.90;;;;;;20407;6876;306976;-67
2022/05/17 00:57:17;;;;;;;7.47;3.23;;;19.00;50.70;;;;;;20626;6874;117362;-67
2022/05/17 00:59:43;;;;;;;3.87;3.60;;;19.00;50.60;;;;;;20410;6875;336918;-67
2022/05/17 01:02:09;;;;;;;3.70;3.40;;;19.00;51.20;;;;;;20417;6875;286240;-67
2022/05/17 01:04:34;;;;;;;3.90;3.20;;;19.20;50.80;;;;;;20613;6875;117613;-67
2022/05/17 01:07:07;;;;;;;3.07;2.90;;;18.90;50.80;;;;;;20622;6875;118855;-68
2022/05/17 01:09:33;;;;;;;3.50;3.10;;;18.70;51.30;;;;;;20401;6875;298969;-67
2022/05/17 01:11:58;;;;;;;5.23;3.47;;;18.70;51.20;;;;;;20620;6875;117665;-68
2022/05/17 01:17:10;;;;;;;3.85;3.55;;;18.30;51.60;;;;;;20412;6876;336537;-67
2022/05/17 01:19:39;;;;;;;4.30;3.53;;;18.40;51.70;;;;;;20621;6876;118330;-68
2022/05/17 01:22:06;;;;;;;3.90;3.60;;;18.40;51.70;;;;;;20407;6876;277419;-67
2022/05/17 01:24:32;;;;;;;4.15;3.78;;;18.40;51.60;;;;;;20397;6876;295081;-68
2022/05/17 01:27:00;;;;;;;4.00;3.65;;;18.60;51.40;;;;;;20418;6876;277905;-68
2022/05/17 01:29:23;;;;;;;4.13;3.73;;;18.70;51.40;;;;;;20601;6876;117762;-67
2022/05/17 01:31:51;;;;;;;3.90;3.60;;;18.50;51.60;;;;;;20584;6876;123417;-67
2022/05/17 01:34:15;;;;;;;4.13;3.80;;;18.10;52.10;;;;;;20378;6876;310945;-67
2022/05/17 01:36:40;;;;;;;4.23;3.50;;;18.20;52.50;;;;;;20621;6876;117735;-69
2022/05/17 01:39:06;;;;;;;3.60;3.30;;;18.10;52.50;;;;;;20618;6876;121317;-68
2022/05/17 01:41:31;;;;;;;3.80;3.50;;;17.80;52.60;;;;;;20395;6876;278167;-67
2022/05/17 01:43:57;;;;;;;4.00;3.70;;;18.00;52.70;;;;;;20397;6876;336753;-67
2022/05/17 01:46:22;;;;;;;5.80;3.20;;;18.30;51.80;;;;;;20592;6876;117792;-67
2022/05/17 01:48:48;;;;;;;4.10;3.80;;;18.10;51.70;;;;;;20404;6876;306920;-68
2022/05/17 01:51:14;;;;;;;4.20;3.90;;;18.20;52.00;;;;;;20384;6876;307756;-67
2022/05/17 01:53:39;;;;;;;4.40;3.90;;;18.50;51.50;;;;;;20403;6876;324563;-67
2022/05/17 01:56:05;;;;;;;5.03;4.40;;;18.60;51.40;;;;;;20409;6876;278087;-67
2022/05/17 01:58:32;;;;;;;4.80;4.27;;;18.70;50.90;;;;;;20379;6876;344204;-67
2022/05/17 02:00:57;;;;;;;4.20;3.90;;;18.70;50.90;;;;;;20610;6876;118928;-67
2022/05/17 02:03:23;;;;;;;5.80;4.20;;;18.40;51.30;;;;;;20367;6876;277008;-67
2022/05/17 02:05:48;;;;;;;5.10;4.00;;;18.30;52.10;;;;;;20604;6876;117158;-67
2022/05/17 02:08:14;;;;;;;5.80;4.23;;;18.10;52.10;;;;;;20377;6874;295943;-68
2022/05/17 02:10:40;;;;;;;4.90;3.47;;;18.10;52.10;;;;;;20627;6875;122144;-68
2022/05/17 02:13:05;;;;;;;4.37;4.00;;;18.00;52.40;;;;;;20405;6875;306475;-67
2022/05/17 02:15:31;;;;;;;6.20;4.00;;;18.00;52.30;;;;;;20627;6875;117276;-68
2022/05/17 02:17:57;;;;;;;4.17;3.73;;;17.50;52.80;;;;;;20622;6875;117382;-68
2022/05/17 02:20:23;;;;;;;4.15;3.85;;;17.50;52.80;;;;;;20383;6875;306979;-68
2022/05/17 02:22:48;;;;;;;4.70;3.83;;;17.60;52.80;;;;;;20396;6875;278277;-67
2022/05/17 02:25:15;;;;;;;4.20;3.60;;;17.80;52.30;;;;;;20598;6875;117165;-68
2022/05/17 02:27:39;;;;;;;4.43;3.57;;;17.60;52.30;;;;;;20621;6875;117235;-67
2022/05/17 02:30:05;;;;;;;4.77;4.37;;;17.30;52.90;;;;;;20408;6876;306827;-67
2022/05/17 02:32:31;;;;;;;4.57;4.18;;;17.30;52.90;;;;;;20386;6876;336073;-67
2022/05/17 02:34:56;;;;;;;3.83;3.53;;;17.60;52.80;;;;;;20619;6876;121639;-67
2022/05/17 02:37:22;;;;;;;4.53;4.12;;;17.40;52.80;;;;;;20408;6876;307298;-67
2022/05/17 02:39:47;;;;;;;4.57;3.90;;;17.40;53.00;;;;;;20597;6876;117029;-67
2022/05/17 02:42:13;;;;;;;4.10;3.77;;;17.30;53.20;;;;;;20605;6876;117351;-67
2022/05/17 02:44:39;;;;;;;4.50;4.10;;;17.00;53.60;;;;;;20403;6876;277791;-67
2022/05/17 02:47:05;;;;;;;4.07;3.60;;;17.00;54.50;;;;;;20617;6876;117247;-68
2022/05/17 02:49:30;;;;;;;4.27;3.70;;;17.00;54.00;;;;;;20610;6876;117374;-68
2022/05/17 02:51:56;;;;;;;5.30;4.80;;;16.80;54.20;;;;;;20406;6876;307135;-68
2022/05/17 02:54:22;;;;;;;4.80;4.40;;;17.00;54.30;;;;;;20596;6876;117244;-68
2022/05/17 02:56:47;;;;;;;4.40;4.00;;;17.00;54.10;;;;;;20628;6876;118283;-67
2022/05/17 02:59:17;;;;;;;5.13;4.03;;;16.80;54.50;;;;;;20625;6876;117305;-67
2022/05/17 03:01:38;;;;;;;6.20;5.20;;;16.60;54.80;;;;;;20397;6876;341196;-67
2022/05/17 03:04:05;;;;;;;5.22;4.82;;;17.20;54.40;;;;;;20416;6876;309974;-67
2022/05/17 03:06:30;;;;;;;5.37;4.70;;;17.20;54.40;;;;;;20398;6876;287440;-67
2022/05/17 03:08:56;;;;;;;5.45;5.05;;;17.70;53.50;;;;;;20409;6876;306989;-67
2022/05/17 03:11:22;;;;;;;6.13;4.77;;;17.60;53.40;;;;;;20624;6876;117203;-67
2022/05/17 03:13:47;;;;;;;5.33;4.50;;;17.50;53.60;;;;;;20622;6876;119001;-67
2022/05/17 03:16:15;;;;;;;5.30;4.80;;;17.20;55.20;;;;;;20394;6876;308839;-67
2022/05/17 03:18:40;;;;;;;5.47;4.97;;;17.20;54.50;;;;;;20403;6876;304997;-67
2022/05/17 03:21:05;;;;;;;5.30;4.80;;;17.50;53.80;;;;;;20627;6873;117338;-67
2022/05/17 03:23:30;;;;;;;5.93;5.43;;;17.40;53.90;;;;;;20413;6875;281941;-67
2022/05/17 03:25:56;;;;;;;4.97;4.53;;;17.50;54.10;;;;;;20621;6875;123876;-67
2022/05/17 03:28:21;;;;;;;5.17;4.70;;;17.30;54.10;;;;;;20596;6875;117731;-67
2022/05/17 03:30:47;;;;;;;4.75;4.45;;;17.10;54.60;;;;;;20611;6875;118581;-67
2022/05/17 03:33:13;;;;;;;4.87;4.40;;;16.80;54.80;;;;;;20621;6875;117254;-67
2022/05/17 03:35:38;;;;;;;5.17;4.73;;;16.60;55.10;;;;;;20404;6875;306440;-67
2022/05/17 03:38:04;;;;;;;5.40;5.00;;;16.80;54.80;;;;;;20611;6875;117680;-67
2022/05/17 03:40:29;;;;;;;4.80;4.50;;;16.80;54.70;;;;;;20594;6876;117327;-67
2022/05/17 03:42:55;;;;;;;5.85;5.22;;;16.60;55.00;;;;;;20415;6876;308043;-67
2022/05/17 03:45:20;;;;;;;5.07;4.77;;;16.80;55.40;;;;;;20624;6876;117176;-67
2022/05/17 03:47:46;;;;;;;7.05;5.10;;;16.70;55.20;;;;;;20619;6876;123476;-67
2022/05/17 03:50:12;;;;;;;5.57;4.57;;;16.50;55.60;;;;;;20583;6876;118897;-68
2022/05/17 03:52:37;;;;;;;6.63;5.13;;;16.40;56.00;;;;;;20612;6876;122197;-67
2022/05/17 03:55:03;;;;;;;6.00;5.57;;;16.30;56.30;;;;;;20381;6876;310111;-67
2022/05/17 03:57:29;;;;;;;7.63;5.30;;;16.70;55.70;;;;;;20608;6876;117262;-67
2022/05/17 03:59:55;;;;;;;4.67;4.27;;;16.60;55.60;;;;;;20610;6876;117128;-67
2022/05/17 04:02:20;;;;;;;5.47;5.00;;;16.50;55.80;;;;;;20370;6876;340038;-67
2022/05/17 04:04:46;;;;;;;6.10;5.03;;;16.80;55.50;;;;;;20616;6876;117414;-66
2022/05/17 04:07:11;;;;;;;7.27;4.00;;;16.80;55.20;;;;;;20613;6876;118343;-66
2022/05/17 04:09:37;;;;;;;5.83;5.17;;;16.60;55.40;;;;;;20414;6876;277553;-66
2022/05/17 04:12:03;;;;;;;5.67;5.17;;;16.80;55.10;;;;;;20386;6876;336307;-67
2022/05/17 04:14:28;;;;;;;4.70;4.40;;;17.10;54.20;;;;;;20599;6876;117698;-67
2022/05/17 04:16:54;;;;;;;4.15;3.80;;;17.10;54.30;;;;;;20607;6876;117938;-67
2022/05/17 04:19:19;;;;;;;5.07;4.67;;;16.90;54.80;;;;;;20372;6876;278607;-67
2022/05/17 04:21:45;;;;;;;4.60;4.30;;;17.10;54.60;;;;;;20579;6876;117737;-69
2022/05/17 04:24:11;;;;;;;4.90;4.60;;;16.80;54.50;;;;;;20608;6876;122141;-68
2022/05/17 04:26:37;;;;;;;4.77;4.43;;;16.90;54.60;;;;;;20259;6883;309094;-67
2022/05/17 04:29:02;;;;;;;4.90;4.40;;;17.10;54.60;;;;;;20565;6883;117896;-67
2022/05/17 04:31:28;;;;;;;5.03;4.60;;;17.00;54.30;;;;;;20569;6886;117312;-67
2022/05/17 04:33:53;;;;;;;5.75;5.18;;;16.80;54.60;;;;;;20387;6873;308650;-67
2022/05/17 04:36:19;;;;;;;5.10;4.50;;;17.00;54.50;;;;;;20545;6888;124185;-68
2022/05/17 04:38:45;;;;;;;4.82;4.53;;;16.90;54.30;;;;;;20381;6880;308917;-68
2022/05/17 04:41:10;;;;;;;4.90;4.60;;;17.10;54.00;;;;;;20530;6888;117360;-68
2022/05/17 04:43:36;;;;;;;5.23;4.73;;;17.00;54.10;;;;;;20569;6890;117774;-67
2022/05/17 04:46:01;;;;;;;5.05;4.65;;;16.80;54.50;;;;;;20400;6875;312704;-68
2022/05/17 04:48:27;;;;;;;5.03;4.60;;;17.40;54.00;;;;;;20343;6890;278837;-66
2022/05/17 04:50:53;;;;;;;5.20;4.80;;;17.40;54.00;;;;;;20558;6892;118004;-66
2022/05/17 04:53:18;;;;;;;4.53;4.13;;;17.40;53.90;;;;;;20562;6892;117254;-67
2022/05/17 04:55:44;;;;;;;5.70;5.20;;;17.20;54.20;;;;;;20350;6892;311853;-66
2022/05/17 04:58:10;;;;;;;5.37;4.97;;;17.30;53.70;;;;;;20389;6877;294519;-67
2022/05/17 05:00:35;;;;;;;5.10;4.78;;;17.60;53.30;;;;;;20375;6877;311437;-68
2022/05/17 05:03:03;;;;;;;5.18;4.78;;;17.90;52.60;;;;;;20309;6877;278146;-69
2022/05/17 05:05:29;;;;;;;4.97;4.53;;;18.00;52.20;;;;;;20563;6892;117291;-68
2022/05/17 05:07:55;;;;;;;4.97;4.67;;;17.80;52.50;;;;;;20356;6876;307944;-71
2022/05/17 05:10:21;;;;;;;4.72;4.40;;;17.70;52.90;;;;;;20569;6877;117788;-67
2022/05/17 05:12:46;;;;;;;5.43;4.60;;;17.70;52.90;;;;;;20608;6877;117927;-67
2022/05/17 05:15:12;;;;;;;4.90;4.43;;;17.40;53.40;;;;;;20610;6877;117403;-68
2022/05/17 05:17:38;;;;;;;5.10;4.70;;;17.10;54.40;;;;;;20609;6877;117261;-68
2022/05/17 05:20:04;;;;;;;5.30;4.90;;;17.00;54.30;;;;;;20598;6877;118176;-68
2022/05/17 05:22:30;;;;;;;5.50;5.10;;;17.20;54.60;;;;;;20327;6892;280382;-68
2022/05/17 05:24:56;;;;;;;5.37;5.07;;;17.20;54.60;;;;;;20347;6892;306675;-68
2022/05/17 05:27:22;;;;;;;5.10;4.70;;;17.70;54.00;;;;;;20557;6892;122613;-68
2022/05/17 05:29:48;;;;;;;5.60;5.10;;;17.60;53.90;;;;;;20400;6877;278697;-68
2022/05/17 05:32:13;;;;;;;6.20;5.60;;;17.80;53.80;;;;;;20319;6892;338165;-68
2022/05/17 05:34:39;;;;;;;6.23;5.77;;;18.10;53.00;;;;;;20400;6877;278640;-70
2022/05/17 05:37:05;;;;;;;5.30;4.90;;;18.40;52.70;;;;;;20616;6877;123604;-69
2022/05/17 05:39:30;;;;;;;6.40;5.90;;;18.30;52.90;;;;;;20398;6877;278066;-69
2022/05/17 05:41:56;;;;;;;6.43;5.93;;;18.30;52.90;;;;;;20394;6877;332484;-69
2022/05/17 05:44:21;;;;;;;6.53;6.03;;;18.60;52.50;;;;;;20381;6875;307645;-68
2022/05/17 05:46:47;;;;;;;5.93;5.53;;;18.70;52.40;;;;;;20395;6877;333582;-69
2022/05/17 05:49:12;;;;;;;6.03;5.50;;;18.90;52.10;;;;;;20619;6877;116343;-69
2022/05/17 05:51:38;;;;;;;6.57;6.07;;;18.70;52.40;;;;;;20381;6877;307724;-68
2022/05/17 05:54:04;;;;;;;5.82;5.43;;;18.70;52.50;;;;;;20621;6877;117578;-68
2022/05/17 05:56:29;;;;;;;6.18;5.65;;;18.60;52.70;;;;;;20386;6875;278940;-68
2022/05/17 05:58:55;;;;;;;6.18;5.68;;;18.80;53.20;;;;;;20572;6890;118427;-68
2022/05/17 06:01:20;;;;;;;6.32;5.62;;;18.80;53.20;;;;;;20353;6890;313140;-68
2022/05/17 06:03:46;;;;;;;5.70;5.40;;;19.00;53.10;;;;;;20578;6891;117760;-67
2022/05/17 06:06:12;;;;;;;4.77;4.33;;;19.30;53.00;;;;;;20341;6890;279428;-68
2022/05/17 06:08:38;;;;;;;4.40;4.00;;;19.30;52.90;;;;;;20565;6890;117385;-70
2022/05/17 06:11:03;;;;;;;4.87;4.47;;;19.50;52.90;;;;;;20560;6890;117463;-70
2022/05/17 06:13:29;;;;;;;5.00;4.50;;;19.70;53.00;;;;;;20359;6890;309647;-69
2022/05/17 06:15:54;;;;;;;5.05;4.65;;;20.10;51.90;;;;;;20574;6890;123174;-69
2022/05/17 06:18:20;;;;;;;3.23;3.00;;;20.40;51.60;;;;;;20555;6890;118098;-69
2022/05/17 06:20:49;;;;;;;3.57;3.30;;;20.60;51.60;;;;;;20557;6890;117535;-69
2022/05/17 06:23:15;;;;;;;4.37;3.77;;;20.70;51.70;;;;;;20562;6890;118129;-68
2022/05/17 06:25:40;;;;;;;3.40;3.20;;;21.00;51.80;;;;;;20608;6876;117343;-70
2022/05/17 06:28:06;;;;;;;4.07;3.67;;;21.40;51.60;;;;;;20370;6890;306511;-70
2022/05/17 06:30:31;;;;;;;3.80;3.60;;;22.10;49.60;;;;;;20558;6889;118909;-70
2022/05/17 06:32:57;;;;;;;4.93;4.30;;;22.70;48.90;;;;;;20591;6889;117109;-68
2022/05/17 06:35:22;;;;;;;3.93;3.63;;;23.20;48.90;;;;;;20588;6889;117673;-68
2022/05/17 06:37:48;;;;;;;3.50;3.30;;;23.50;48.50;;;;;;20573;6889;117172;-68
2022/05/17 06:40:14;;;;;;;3.67;3.30;;;23.90;48.00;;;;;;20557;6889;118136;-68
2022/05/17 06:42:39;;;;;;;4.40;4.00;;;24.30;47.40;;;;;;20607;6881;118960;-71
2022/05/17 06:45:05;;;;;;;4.32;3.30;;;24.80;46.90;;;;;;20370;6889;308515;-71
2022/05/17 06:47:31;;;;;;;3.90;3.60;;;25.40;42.60;;;;;;20569;6889;117105;-71
2022/05/17 06:49:56;;;;;;;3.70;3.40;;;25.90;43.10;;;;;;20581;6889;118332;-71
2022/05/17 06:52:24;;;;;;;3.15;2.95;;;26.10;42.80;;;;;;20556;6889;117395;-71
2022/05/17 06:54:49;;;;;;;3.57;3.27;;;26.10;42.80;;;;;;20578;6887;117563;-72
2022/05/17 06:57:15;;;;;;;3.33;2.93;;;26.20;42.80;;;;;;20397;6880;308241;-71
2022/05/17 06:59:40;;;;;;;3.87;3.03;;;26.60;40.50;;;;;;20576;6888;117337;-72
2022/05/17 07:02:06;;;;;;;3.40;3.20;;;26.70;40.80;;;;;;20360;6888;306686;-71
2022/05/17 07:04:33;;;;;;;3.40;3.10;;;26.90;39.40;;;;;;20369;6880;298585;-72
2022/05/17 07:06:58;;;;;;;3.85;2.80;;;27.20;38.70;;;;;;20357;6889;280576;-72
2022/05/17 07:09:24;;;;;;;3.72;3.40;;;27.50;38.20;;;;;;20364;6889;279495;-72
2022/05/17 07:14:37;;;;;;;4.40;3.97;;;27.60;38.60;;;;;;20339;6889;308590;-72
2022/05/17 07:17:01;;;;;;;3.37;3.17;;;27.60;39.00;;;;;;20563;6889;117576;-72
2022/05/17 07:19:27;;;;;;;3.50;3.20;;;27.00;39.90;;;;;;20573;6889;117768;-72
2022/05/17 07:21:52;;;;;;;4.00;3.70;;;27.00;39.90;;;;;;20341;6889;308164;-72
2022/05/17 07:24:19;;;;;;;3.85;3.45;;;27.00;40.10;;;;;;20353;6889;308084;-72
2022/05/17 07:26:43;;;;;;;4.50;3.37;;;27.20;39.60;;;;;;20568;6889;117495;-72
2022/05/17 07:29:10;;;;;;;4.53;4.22;;;27.20;39.70;;;;;;20586;6889;117628;-71
2022/05/17 07:31:35;;;;;;;4.70;4.30;;;26.90;40.30;;;;;;20562;6889;117718;-70
2022/05/17 07:34:01;;;;;;;4.12;3.75;;;26.80;40.30;;;;;;20362;6889;308229;-69
2022/05/17 07:36:27;;;;;;;4.18;3.87;;;26.80;40.30;;;;;;20343;6889;321454;-70
2022/05/17 07:38:52;;;;;;;3.92;3.62;;;27.00;39.90;;;;;;20365;6889;310120;-69
2022/05/17 07:41:18;;;;;;;4.43;4.03;;;27.30;39.90;;;;;;20580;6889;117587;-69
2022/05/17 07:43:43;;;;;;;6.73;4.23;;;27.20;40.20;;;;;;20585;6889;120014;-69
2022/05/17 07:46:09;;;;;;;3.42;3.20;;;27.10;41.50;;;;;;20375;6889;278503;-71
2022/05/17 07:48:35;;;;;;;4.40;4.00;;;27.10;39.60;;;;;;20349;6889;277349;-70
2022/05/17 07:51:00;;;;;;;3.47;3.17;;;27.50;40.30;;;;;;20566;6889;116258;-70
2022/05/17 07:53:25;;;;;;;4.33;3.93;;;27.50;39.70;;;;;;20625;6874;118570;-70
2022/05/17 07:55:51;;;;;;;4.57;3.58;;;27.40;40.20;;;;;;20393;6881;298642;-71
2022/05/17 07:58:16;;;;;;;4.87;4.57;;;27.50;39.40;;;;;;20554;6889;117199;-70
2022/05/17 08:00:42;;;;;;;5.18;4.78;;;27.60;39.50;;;;;;20359;6889;307726;-70
2022/05/17 08:03:08;;;;;;;5.47;4.87;;;27.80;39.50;;;;;;20571;6889;117352;-71
2022/05/17 08:05:33;;;;;;;4.57;4.20;;;27.80;39.70;;;;;;20385;6881;313724;-69
2022/05/17 08:07:59;;;;;;;5.20;4.90;;;27.90;39.30;;;;;;20368;6887;304593;-70
2022/05/17 08:10:24;;;;;;;4.93;4.53;;;28.20;39.40;;;;;;20339;6888;338810;-70
2022/05/17 08:12:50;;;;;;;5.68;5.12;;;28.30;38.80;;;;;;20368;6888;292730;-74
2022/05/17 08:15:15;;;;;;;4.93;4.55;;;28.50;38.10;;;;;;20360;6888;279128;-74
2022/05/17 08:17:41;;;;;;;3.47;3.27;;;28.60;37.20;;;;;;20584;6889;117771;-72
2022/05/17 08:20:09;;;;;;;5.60;5.17;;;28.40;37.50;;;;;;20571;6889;118875;-70
2022/05/17 08:22:33;;;;;;;4.80;4.40;;;28.20;38.00;;;;;;20556;6889;117851;-71
2022/05/17 08:27:44;;;;;;;5.53;5.00;;;27.70;38.60;;;;;;20588;6889;117855;-69
2022/05/17 08:30:12;;;;;;;6.50;5.93;;;27.50;38.70;;;;;;20578;6889;117253;-70
2022/05/17 08:35:40;;;;;;;5.30;4.80;;;27.10;39.30;;;;;;20607;6881;117651;-69
2022/05/17 08:38:05;;;;;;;4.90;4.63;;;27.00;39.60;;;;;;20368;6889;280337;-69
2022/05/17 08:40:31;;;;;;;4.63;4.23;;;27.20;39.30;;;;;;20557;6889;117309;-69
2022/05/17 08:43:19;;;;;;;4.07;3.77;;;27.30;38.90;;;;;;20561;6889;117411;-69
2022/05/17 08:46:08;;;;;;;5.27;3.90;;;27.20;38.60;;;;;;20593;6889;117294;-69
2022/05/17 08:48:33;;;;;;;4.33;3.93;;;27.10;38.70;;;;;;19997;6872;119358;-69
2022/05/17 08:50:59;;;;;;;4.23;3.93;;;27.00;38.90;;;;;;20450;6856;307633;-69
2022/05/17 08:53:24;;;;;;;4.40;4.00;;;27.30;37.50;;;;;;20701;6856;117227;-69
2022/05/17 08:55:51;;;;;;;4.70;4.40;;;27.50;37.90;;;;;;20474;6856;283417;-69
2022/05/17 08:58:19;;;;;;;5.00;4.60;;;27.80;37.20;;;;;;20447;6856;283193;-69
2022/05/17 09:00:48;;;;;;;4.43;4.00;;;28.10;37.30;;;;;;20678;6856;118710;-69
2022/05/17 09:03:26;;;;;;;5.18;4.78;;;28.20;37.40;;;;;;20458;6856;307929;-69
2022/05/17 09:05:58;;;;;;;4.60;4.20;;;28.30;36.80;;;;;;20678;6856;117568;-69
2022/05/17 09:08:44;;;;;;;4.67;4.23;;;28.40;36.60;;;;;;20314;6856;278847;-70
2022/05/17 09:11:20;;;;;;;5.85;4.68;;;28.50;36.50;;;;;;20476;6856;278111;-69
2022/05/17 09:13:58;;;;;;;5.15;4.75;;;28.80;35.60;;;;;;20484;6856;296346;-69
2022/05/17 09:16:23;;;;;;;4.43;4.13;;;28.90;36.30;;;;;;20679;6856;117341;-69
2022/05/17 09:18:49;;;;;;;4.60;4.20;;;28.90;37.30;;;;;;20682;6854;122396;-69
2022/05/17 09:21:31;;;;;;;4.43;4.13;;;28.80;37.40;;;;;;20686;6855;117723;-69
2022/05/17 09:23:56;;;;;;;6.07;4.40;;;28.70;37.90;;;;;;20679;6855;117243;-69
2022/05/17 09:26:22;;;;;;;4.93;4.25;;;28.60;38.00;;;;;;20449;6855;308438;-69
2022/05/17 09:29:01;;;;;;;4.47;4.17;;;28.80;36.70;;;;;;20481;6856;278217;-69
2022/05/17 09:31:27;;;;;;;4.20;3.85;;;29.30;36.20;;;;;;20462;6856;294046;-69
2022/05/17 09:33:53;;;;;;;5.43;4.47;;;29.60;35.80;;;;;;20468;6856;282127;-69
2022/05/17 09:36:18;;;;;;;4.53;4.17;;;29.90;35.10;;;;;;20676;6856;118684;-70
2022/05/17 09:38:43;;;;;;;4.28;3.97;;;29.80;34.80;;;;;;20483;6856;279776;-69
2022/05/17 09:41:09;;;;;;;4.20;3.90;;;29.80;35.10;;;;;;20488;6856;278941;-69
2022/05/17 09:43:37;;;;;;;4.47;3.80;;;29.90;35.80;;;;;;20687;6856;117174;-69
2022/05/17 09:46:09;;;;;;;4.70;4.30;;;29.80;35.60;;;;;;20701;6856;118345;-69
2022/05/17 09:54:10;;;;;;;3.73;3.53;;;29.50;34.50;;;;;;20479;6856;308187;-69
2022/05/17 09:56:36;;;;;;;4.62;4.20;;;29.50;34.50;;;;;;20390;6856;337936;-70
2022/05/17 09:59:01;;;;;;;4.50;4.10;;;29.70;35.30;;;;;;20696;6856;117243;-70
2022/05/17 10:01:28;;;;;;;4.87;4.47;;;29.50;34.50;;;;;;20611;6856;118539;-70
2022/05/17 10:04:05;;;;;;;4.00;3.60;;;29.20;34.60;;;;;;20647;6856;118455;-70
2022/05/17 10:06:32;;;;;;;3.55;3.35;;;29.30;34.70;;;;;;20439;6856;321012;-70
2022/05/17 10:09:01;;;;;;;4.37;3.33;;;29.30;34.70;;;;;;20674;6856;117818;-71
2022/05/17 10:11:27;;;;;;;3.57;3.23;;;29.40;35.60;;;;;;20663;6856;117323;-69
2022/05/17 10:14:12;;;;;;;3.77;3.47;;;29.50;35.60;;;;;;20678;6856;122291;-69
2022/05/17 10:16:54;;;;;;;3.70;3.40;;;29.50;35.20;;;;;;20596;6872;119717;-70
2022/05/17 10:19:46;;;;;;;3.60;3.40;;;29.50;34.80;;;;;;20381;6879;337541;-70
2022/05/17 10:22:52;;;;;;;3.70;3.40;;;29.80;35.30;;;;;;20591;6870;120774;-70
2022/05/17 10:25:31;;;;;;;3.67;3.47;;;29.90;34.60;;;;;;20476;6897;118328;-70
2022/05/17 10:27:57;;;;;;;4.77;4.30;;;29.70;34.60;;;;;;20380;6874;311133;-68
2022/05/17 10:30:41;;;;;;;4.50;4.10;;;29.80;34.10;;;;;;20371;6872;298039;-69
2022/05/17 10:33:07;;;;;;;5.03;4.53;;;30.00;33.00;;;;;;20403;6865;309477;-69
2022/05/17 10:35:39;;;;;;;3.70;3.50;;;30.20;33.10;;;;;;20616;6863;117621;-70
2022/05/17 10:38:28;;;;;;;3.50;3.30;;;29.80;32.90;;;;;;20618;6863;117226;-70
2022/05/17 10:40:51;;;;;;;3.90;3.23;;;29.80;32.90;;;;;;20627;6868;116531;-69
2022/05/17 10:43:16;;;;;;;4.00;3.60;;;29.50;34.10;;;;;;20439;6868;311800;-70
2022/05/17 10:45:44;;;;;;;4.00;3.70;;;29.70;33.10;;;;;;20624;6868;120618;-69
2022/05/17 10:48:23;;;;;;;3.73;3.53;;;29.80;33.00;;;;;;20640;6868;117673;-69
2022/05/17 10:50:58;;;;;;;3.47;3.20;;;29.70;33.40;;;;;;20390;6868;311317;-74
2022/05/17 10:53:50;;;;;;;3.15;2.95;;;29.90;33.20;;;;;;20425;6868;315303;-71
2022/05/17 10:56:49;;;;;;;3.50;3.30;;;30.10;31.20;;;;;;20411;6871;308983;-71
2022/05/17 10:59:31;;;;;;;3.47;3.20;;;30.00;32.40;;;;;;20645;6872;117720;-71
2022/05/17 11:02:17;;;;;;;4.60;3.40;;;30.00;32.30;;;;;;20625;6872;117481;-71
2022/05/17 11:04:59;;;;;;;4.13;3.63;;;29.80;32.80;;;;;;20640;6872;117998;-70
2022/05/17 11:07:45;;;;;;;3.23;2.93;;;29.40;33.20;;;;;;20623;6872;117454;-71
2022/05/17 11:10:37;;;;;;;3.50;3.30;;;29.40;33.20;;;;;;20444;6857;119141;-70
2022/05/17 11:13:13;;;;;;;3.30;3.10;;;29.40;32.90;;;;;;20679;6857;117716;-71
2022/05/17 11:15:39;;;;;;;3.30;3.00;;;29.30;33.10;;;;;;20659;6857;117097;-72
2022/05/17 11:18:11;;;;;;;3.40;3.20;;;29.10;33.30;;;;;;20595;6878;118175;-69
2022/05/17 11:20:40;;;;;;;3.20;3.00;;;29.00;33.30;;;;;;20635;6863;117371;-70
2022/05/17 11:23:22;;;;;;;3.40;3.10;;;28.90;33.60;;;;;;20643;6863;117760;-69
2022/05/17 11:26:07;;;;;;;3.40;3.10;;;28.90;33.40;;;;;;20403;6878;306958;-70
2022/05/17 11:28:53;;;;;;;4.80;3.47;;;29.10;32.50;;;;;;20617;6863;117954;-70
2022/05/17 11:31:44;;;;;;;3.70;3.40;;;29.20;32.30;;;;;;20648;6863;117258;-70
2022/05/17 11:34:26;;;;;;;3.30;3.10;;;29.40;32.30;;;;;;20415;6863;308548;-71
2022/05/17 11:36:53;;;;;;;3.63;3.33;;;29.40;33.10;;;;;;20250;6863;278628;-71
2022/05/17 11:39:31;;;;;;;4.47;2.87;;;29.70;31.20;;;;;;20446;6863;337358;-69
2022/05/17 11:42:04;;;;;;;2.93;2.70;;;29.80;30.10;;;;;;20407;6876;317962;-71
2022/05/17 11:44:29;;;;;;;3.00;2.80;;;29.80;30.40;;;;;;20436;6863;285274;-71
2022/05/17 11:46:55;;;;;;;4.20;3.00;;;29.80;30.90;;;;;;20411;6863;316764;-71
2022/05/17 11:49:27;;;;;;;2.90;2.70;;;29.80;30.90;;;;;;20395;6875;338032;-71
2022/05/17 11:51:59;;;;;;;3.00;2.80;;;29.90;31.20;;;;;;20605;6872;117207;-73
2022/05/17 11:54:40;;;;;;;2.20;2.00;;;29.80;31.80;;;;;;20588;6878;121237;-74
2022/05/17 11:57:04;;;;;;;2.20;2.10;;;29.50;30.80;;;;;;20392;6870;279177;-71
2022/05/17 11:59:30;;;;;;;2.20;2.00;;;29.60;29.00;;;;;;20391;6872;310132;-71
2022/05/17 12:02:09;;;;;;;3.17;2.37;;;29.60;29.00;;;;;;20584;6872;118446;-71
2022/05/17 12:04:34;;;;;;;2.00;1.80;;;29.50;29.50;;;;;;20029;6878;123236;-71
2022/05/17 12:07:04;;;;;;;2.10;2.00;;;29.20;29.70;;;;;;20610;6878;117586;-71
2022/05/17 12:09:32;;;;;;;2.15;2.03;;;29.00;29.90;;;;;;20596;6872;117747;-71
2022/05/17 12:12:18;;;;;;;2.30;2.17;;;28.90;30.10;;;;;;20593;6872;117187;-72
2022/05/17 12:15:03;;;;;;;2.30;1.77;;;28.70;30.50;;;;;;20604;6872;117340;-71
2022/05/17 12:17:35;;;;;;;2.10;2.00;;;28.60;30.00;;;;;;20410;6872;338468;-75
2022/05/17 12:20:04;;;;;;;1.70;1.60;;;28.70;29.40;;;;;;20381;6872;312518;-71
2022/05/17 12:22:55;;;;;;;2.23;2.03;;;29.00;29.00;;;;;;20584;6872;121240;-72
2022/05/17 12:25:24;;;;;;;3.23;2.10;;;28.90;29.40;;;;;;20626;6872;119173;-72
2022/05/17 12:27:49;;;;;;;2.60;2.50;;;28.70;30.50;;;;;;20616;6872;117204;-71
2022/05/17 12:33:10;;;;;;;3.10;2.30;;;28.30;30.60;;;;;;20641;6872;117219;-72
2022/05/17 12:35:36;;;;;;;2.13;1.93;;;28.10;31.10;;;;;;20627;6872;117665;-72
2022/05/17 12:38:01;;;;;;;2.33;2.22;;;28.00;31.30;;;;;;20430;6872;278305;-72
2022/05/17 12:43:13;;;;;;;2.63;2.17;;;28.30;31.70;;;;;;20434;6872;312293;-71
2022/05/17 12:45:41;;;;;;;2.20;2.00;;;28.50;32.60;;;;;;20398;6872;308392;-72
2022/05/17 12:48:27;;;;;;;2.17;1.53;;;28.80;31.00;;;;;;20619;6872;117352;-72
2022/05/17 12:50:52;;;;;;;1.57;1.47;;;28.80;31.10;;;;;;20421;6872;298228;-72
2022/05/17 12:53:24;;;;;;;1.30;1.20;;;29.00;28.70;;;;;;20625;6871;117597;-72
2022/05/17 12:56:01;;;;;;;1.20;1.20;;;28.80;28.60;;;;;;20628;6872;124319;-72
2022/05/17 12:58:26;;;;;;;1.70;1.60;;;28.40;28.80;;;;;;20395;6872;278322;-72
2022/05/17 13:00:51;;;;;;;1.75;1.65;;;28.40;28.90;;;;;;20421;6872;341834;-72
2022/05/17 13:03:17;;;;;;;1.70;1.60;;;28.60;28.80;;;;;;20415;6872;307892;-72
2022/05/17 13:05:43;;;;;;;2.20;2.00;;;28.70;29.70;;;;;;20415;6872;278467;-72